sensor_id;sensor_type;location;lat;lon;timestamp;P1;durP1;ratioP1;P2;durP2;ratioP2
12425;SDS011;6277;49.824;9.562;2022-12-11T00:01:53;7.88;;;6.13;;
12425;SDS011;6277;49.824;9.562;2022-12-11T00:04:19;8.98;;;6.30;;
12425;SDS011;6277;49.824;9.562;2022-12-11T00:06:44;8.48;;;5.57;;
12425;SDS011;6277;49.824;9.562;2022-12-11T00:09:10;7.72;;;5.90;;
12425;SDS011;6277;49.824;9.562;2022-12-11T00:11:36;9.55;;;6.18;;
12425;SDS011;6277;49.824;9.562;2022-12-11T00:14:01;7.32;;;5.40;;
12425;SDS011;6277;49.824;9.562;2022-12-11T00:16:27;9.05;;;6.15;;
12425;SDS011;6277;49.824;9.562;2022-12-11T00:18:53;9.43;;;6.85;;
12425;SDS011;6277;49.824;9.562;2022-12-11T00:21:19;9.27;;;6.78;;
12425;SDS011;6277;49.824;9.562;2022-12-11T00:23:44;9.20;;;6.95;;
12425;SDS011;6277;49.824;9.562;2022-12-11T00:26:13;9.68;;;6.72;;
12425;SDS011;6277;49.824;9.562;2022-12-11T00:28:40;9.75;;;6.65;;
12425;SDS011;6277;49.824;9.562;2022-12-11T00:31:08;10.50;;;6.85;;
12425;SDS011;6277;49.824;9.562;2022-12-11T00:33:38;10.68;;;6.80;;
12425;SDS011;6277;49.824;9.562;2022-12-11T00:36:08;9.68;;;6.95;;
12425;SDS011;6277;49.824;9.562;2022-12-11T00:38:35;10.30;;;6.57;;
12425;SDS011;6277;49.824;9.562;2022-12-11T00:41:01;9.98;;;6.90;;
12425;SDS011;6277;49.824;9.562;2022-12-11T00:43:26;12.43;;;7.35;;
12425;SDS011;6277;49.824;9.562;2022-12-11T00:45:52;10.88;;;7.18;;
12425;SDS011;6277;49.824;9.562;2022-12-11T00:48:18;10.32;;;7.35;;
12425;SDS011;6277;49.824;9.562;2022-12-11T00:50:43;11.90;;;7.82;;
12425;SDS011;6277;49.824;9.562;2022-12-11T00:53:09;10.30;;;7.40;;
12425;SDS011;6277;49.824;9.562;2022-12-11T00:55:38;10.52;;;7.50;;
12425;SDS011;6277;49.824;9.562;2022-12-11T00:58:04;11.57;;;7.38;;
12425;SDS011;6277;49.824;9.562;2022-12-11T01:00:30;11.05;;;7.55;;
12425;SDS011;6277;49.824;9.562;2022-12-11T01:02:55;10.45;;;7.55;;
12425;SDS011;6277;49.824;9.562;2022-12-11T01:05:21;10.60;;;7.20;;
12425;SDS011;6277;49.824;9.562;2022-12-11T01:07:46;11.82;;;7.32;;
12425;SDS011;6277;49.824;9.562;2022-12-11T01:10:12;10.13;;;7.45;;
12425;SDS011;6277;49.824;9.562;2022-12-11T01:12:48;10.75;;;7.38;;
12425;SDS011;6277;49.824;9.562;2022-12-11T01:15:43;11.48;;;6.95;;
12425;SDS011;6277;49.824;9.562;2022-12-11T01:18:10;11.07;;;7.60;;
12425;SDS011;6277;49.824;9.562;2022-12-11T01:20:38;10.40;;;6.65;;
12425;SDS011;6277;49.824;9.562;2022-12-11T01:23:05;10.45;;;7.18;;
12425;SDS011;6277;49.824;9.562;2022-12-11T01:25:31;13.32;;;7.95;;
12425;SDS011;6277;49.824;9.562;2022-12-11T01:27:57;9.88;;;7.38;;
12425;SDS011;6277;49.824;9.562;2022-12-11T01:30:24;10.93;;;7.68;;
12425;SDS011;6277;49.824;9.562;2022-12-11T01:32:50;11.63;;;7.47;;
12425;SDS011;6277;49.824;9.562;2022-12-11T01:35:16;11.65;;;7.72;;
12425;SDS011;6277;49.824;9.562;2022-12-11T01:37:42;11.52;;;7.63;;
12425;SDS011;6277;49.824;9.562;2022-12-11T01:40:08;11.10;;;7.70;;
12425;SDS011;6277;49.824;9.562;2022-12-11T01:42:36;10.35;;;7.30;;
12425;SDS011;6277;49.824;9.562;2022-12-11T01:47:46;11.48;;;7.45;;
12425;SDS011;6277;49.824;9.562;2022-12-11T01:50:12;11.23;;;7.28;;
12425;SDS011;6277;49.824;9.562;2022-12-11T01:52:39;11.00;;;7.53;;
12425;SDS011;6277;49.824;9.562;2022-12-11T01:55:07;10.52;;;7.75;;
12425;SDS011;6277;49.824;9.562;2022-12-11T01:57:34;11.48;;;7.85;;
12425;SDS011;6277;49.824;9.562;2022-12-11T02:00:02;10.52;;;7.50;;
12425;SDS011;6277;49.824;9.562;2022-12-11T02:02:29;10.68;;;7.65;;
12425;SDS011;6277;49.824;9.562;2022-12-11T02:04:56;11.70;;;7.90;;
12425;SDS011;6277;49.824;9.562;2022-12-11T02:07:22;11.50;;;8.05;;
12425;SDS011;6277;49.824;9.562;2022-12-11T02:09:48;10.60;;;7.10;;
12425;SDS011;6277;49.824;9.562;2022-12-11T02:15:10;10.10;;;7.30;;
12425;SDS011;6277;49.824;9.562;2022-12-11T02:17:41;10.85;;;7.10;;
12425;SDS011;6277;49.824;9.562;2022-12-11T02:20:17;11.27;;;7.28;;
12425;SDS011;6277;49.824;9.562;2022-12-11T02:31:04;9.75;;;6.72;;
12425;SDS011;6277;49.824;9.562;2022-12-11T02:33:54;11.13;;;7.25;;
12425;SDS011;6277;49.824;9.562;2022-12-11T02:36:27;10.57;;;7.22;;
12425;SDS011;6277;49.824;9.562;2022-12-11T02:38:57;10.88;;;6.93;;
12425;SDS011;6277;49.824;9.562;2022-12-11T02:41:25;10.60;;;7.18;;
12425;SDS011;6277;49.824;9.562;2022-12-11T02:43:52;10.05;;;6.55;;
12425;SDS011;6277;49.824;9.562;2022-12-11T02:46:20;9.65;;;6.72;;
12425;SDS011;6277;49.824;9.562;2022-12-11T02:48:47;8.65;;;6.47;;
12425;SDS011;6277;49.824;9.562;2022-12-11T02:51:15;10.65;;;7.13;;
12425;SDS011;6277;49.824;9.562;2022-12-11T02:53:45;9.63;;;6.78;;
12425;SDS011;6277;49.824;9.562;2022-12-11T02:56:15;10.73;;;6.88;;
12425;SDS011;6277;49.824;9.562;2022-12-11T02:58:47;9.55;;;6.13;;
12425;SDS011;6277;49.824;9.562;2022-12-11T03:01:19;8.20;;;5.97;;
12425;SDS011;6277;49.824;9.562;2022-12-11T03:03:45;8.20;;;6.13;;
12425;SDS011;6277;49.824;9.562;2022-12-11T03:06:12;9.57;;;6.03;;
12425;SDS011;6277;49.824;9.562;2022-12-11T03:08:42;9.23;;;6.35;;
12425;SDS011;6277;49.824;9.562;2022-12-11T03:11:09;8.70;;;6.32;;
12425;SDS011;6277;49.824;9.562;2022-12-11T03:13:36;8.93;;;6.10;;
12425;SDS011;6277;49.824;9.562;2022-12-11T03:18:49;9.98;;;6.63;;
12425;SDS011;6277;49.824;9.562;2022-12-11T03:21:52;8.82;;;6.07;;
12425;SDS011;6277;49.824;9.562;2022-12-11T03:24:29;8.25;;;6.07;;
12425;SDS011;6277;49.824;9.562;2022-12-11T03:27:04;8.38;;;5.88;;
12425;SDS011;6277;49.824;9.562;2022-12-11T03:29:54;9.27;;;6.45;;
12425;SDS011;6277;49.824;9.562;2022-12-11T03:32:28;8.68;;;6.00;;
12425;SDS011;6277;49.824;9.562;2022-12-11T03:35:13;7.90;;;5.82;;
12425;SDS011;6277;49.824;9.562;2022-12-11T03:37:45;8.88;;;6.22;;
12425;SDS011;6277;49.824;9.562;2022-12-11T03:40:14;11.30;;;7.13;;
12425;SDS011;6277;49.824;9.562;2022-12-11T03:42:42;10.18;;;6.97;;
12425;SDS011;6277;49.824;9.562;2022-12-11T03:45:10;11.10;;;7.40;;
12425;SDS011;6277;49.824;9.562;2022-12-11T03:47:37;11.63;;;7.70;;
12425;SDS011;6277;49.824;9.562;2022-12-11T03:50:05;11.82;;;7.47;;
12425;SDS011;6277;49.824;9.562;2022-12-11T03:52:33;10.75;;;7.80;;
12425;SDS011;6277;49.824;9.562;2022-12-11T03:55:02;10.75;;;7.47;;
12425;SDS011;6277;49.824;9.562;2022-12-11T03:57:29;11.65;;;8.00;;
12425;SDS011;6277;49.824;9.562;2022-12-11T03:59:57;11.60;;;7.55;;
12425;SDS011;6277;49.824;9.562;2022-12-11T04:02:23;13.70;;;7.13;;
12425;SDS011;6277;49.824;9.562;2022-12-11T04:04:48;9.85;;;7.28;;
12425;SDS011;6277;49.824;9.562;2022-12-11T04:07:14;12.43;;;8.10;;
12425;SDS011;6277;49.824;9.562;2022-12-11T04:09:40;12.10;;;7.97;;
12425;SDS011;6277;49.824;9.562;2022-12-11T04:12:05;11.48;;;7.90;;
12425;SDS011;6277;49.824;9.562;2022-12-11T04:14:31;11.40;;;7.68;;
12425;SDS011;6277;49.824;9.562;2022-12-11T04:17:15;11.30;;;7.53;;
12425;SDS011;6277;49.824;9.562;2022-12-11T04:20:00;9.57;;;6.82;;
12425;SDS011;6277;49.824;9.562;2022-12-11T04:22:45;10.02;;;7.05;;
12425;SDS011;6277;49.824;9.562;2022-12-11T04:25:29;10.50;;;7.47;;
12425;SDS011;6277;49.824;9.562;2022-12-11T04:27:54;9.25;;;6.43;;
12425;SDS011;6277;49.824;9.562;2022-12-11T04:30:21;9.52;;;6.72;;
12425;SDS011;6277;49.824;9.562;2022-12-11T04:32:48;10.52;;;7.05;;
12425;SDS011;6277;49.824;9.562;2022-12-11T04:35:14;9.18;;;5.90;;
12425;SDS011;6277;49.824;9.562;2022-12-11T04:37:40;10.00;;;6.53;;
12425;SDS011;6277;49.824;9.562;2022-12-11T04:40:07;10.43;;;6.85;;
12425;SDS011;6277;49.824;9.562;2022-12-11T04:42:35;9.48;;;6.47;;
12425;SDS011;6277;49.824;9.562;2022-12-11T04:45:00;9.15;;;5.90;;
12425;SDS011;6277;49.824;9.562;2022-12-11T04:47:26;8.90;;;5.97;;
12425;SDS011;6277;49.824;9.562;2022-12-11T04:49:51;7.93;;;5.15;;
12425;SDS011;6277;49.824;9.562;2022-12-11T04:52:18;8.18;;;5.82;;
12425;SDS011;6277;49.824;9.562;2022-12-11T04:54:43;8.10;;;5.70;;
12425;SDS011;6277;49.824;9.562;2022-12-11T04:57:09;10.35;;;5.90;;
12425;SDS011;6277;49.824;9.562;2022-12-11T04:59:34;8.40;;;5.90;;
12425;SDS011;6277;49.824;9.562;2022-12-11T05:02:01;14.30;;;6.85;;
12425;SDS011;6277;49.824;9.562;2022-12-11T05:04:31;10.35;;;6.57;;
12425;SDS011;6277;49.824;9.562;2022-12-11T05:06:57;10.27;;;7.00;;
12425;SDS011;6277;49.824;9.562;2022-12-11T05:09:23;10.70;;;6.88;;
12425;SDS011;6277;49.824;9.562;2022-12-11T05:11:50;9.30;;;6.57;;
12425;SDS011;6277;49.824;9.562;2022-12-11T05:14:15;11.20;;;7.57;;
12425;SDS011;6277;49.824;9.562;2022-12-11T05:16:41;10.18;;;6.47;;
12425;SDS011;6277;49.824;9.562;2022-12-11T05:19:07;11.40;;;7.35;;
12425;SDS011;6277;49.824;9.562;2022-12-11T05:21:33;10.45;;;6.63;;
12425;SDS011;6277;49.824;9.562;2022-12-11T05:23:58;11.40;;;6.78;;
12425;SDS011;6277;49.824;9.562;2022-12-11T05:26:24;11.60;;;7.43;;
12425;SDS011;6277;49.824;9.562;2022-12-11T05:28:50;11.55;;;7.25;;
12425;SDS011;6277;49.824;9.562;2022-12-11T05:31:17;11.05;;;7.30;;
12425;SDS011;6277;49.824;9.562;2022-12-11T05:33:45;10.95;;;7.35;;
12425;SDS011;6277;49.824;9.562;2022-12-11T05:36:13;9.93;;;6.45;;
12425;SDS011;6277;49.824;9.562;2022-12-11T05:38:41;12.20;;;7.82;;
12425;SDS011;6277;49.824;9.562;2022-12-11T05:41:07;12.48;;;7.57;;
12425;SDS011;6277;49.824;9.562;2022-12-11T05:43:33;11.45;;;8.18;;
12425;SDS011;6277;49.824;9.562;2022-12-11T05:46:06;12.13;;;8.10;;
12425;SDS011;6277;49.824;9.562;2022-12-11T05:48:34;12.95;;;8.18;;
12425;SDS011;6277;49.824;9.562;2022-12-11T05:51:01;11.88;;;7.75;;
12425;SDS011;6277;49.824;9.562;2022-12-11T05:53:28;12.25;;;8.02;;
12425;SDS011;6277;49.824;9.562;2022-12-11T05:55:54;11.68;;;8.02;;
12425;SDS011;6277;49.824;9.562;2022-12-11T05:58:25;11.40;;;7.93;;
12425;SDS011;6277;49.824;9.562;2022-12-11T06:00:50;11.10;;;8.27;;
12425;SDS011;6277;49.824;9.562;2022-12-11T06:03:16;11.45;;;7.57;;
12425;SDS011;6277;49.824;9.562;2022-12-11T06:05:41;10.68;;;7.10;;
12425;SDS011;6277;49.824;9.562;2022-12-11T06:08:07;10.15;;;7.15;;
12425;SDS011;6277;49.824;9.562;2022-12-11T06:10:33;12.90;;;7.95;;
12425;SDS011;6277;49.824;9.562;2022-12-11T06:12:58;10.88;;;7.38;;
12425;SDS011;6277;49.824;9.562;2022-12-11T06:15:24;13.48;;;8.48;;
12425;SDS011;6277;49.824;9.562;2022-12-11T06:17:50;12.05;;;8.00;;
12425;SDS011;6277;49.824;9.562;2022-12-11T06:20:15;12.70;;;7.90;;
12425;SDS011;6277;49.824;9.562;2022-12-11T06:22:41;12.30;;;8.10;;
12425;SDS011;6277;49.824;9.562;2022-12-11T06:25:06;11.57;;;7.68;;
12425;SDS011;6277;49.824;9.562;2022-12-11T06:27:33;12.38;;;8.20;;
12425;SDS011;6277;49.824;9.562;2022-12-11T06:29:59;10.48;;;7.38;;
12425;SDS011;6277;49.824;9.562;2022-12-11T06:32:25;13.27;;;8.00;;
12425;SDS011;6277;49.824;9.562;2022-12-11T06:34:51;11.70;;;8.07;;
12425;SDS011;6277;49.824;9.562;2022-12-11T06:37:16;12.02;;;8.02;;
12425;SDS011;6277;49.824;9.562;2022-12-11T06:39:42;10.50;;;7.45;;
12425;SDS011;6277;49.824;9.562;2022-12-11T06:42:07;11.95;;;7.75;;
12425;SDS011;6277;49.824;9.562;2022-12-11T06:44:33;11.88;;;7.95;;
12425;SDS011;6277;49.824;9.562;2022-12-11T06:46:58;10.80;;;7.55;;
12425;SDS011;6277;49.824;9.562;2022-12-11T06:49:24;12.93;;;8.10;;
12425;SDS011;6277;49.824;9.562;2022-12-11T06:51:49;12.45;;;8.07;;
12425;SDS011;6277;49.824;9.562;2022-12-11T06:54:15;12.90;;;8.52;;
12425;SDS011;6277;49.824;9.562;2022-12-11T06:56:40;11.93;;;8.07;;
12425;SDS011;6277;49.824;9.562;2022-12-11T06:59:09;13.73;;;8.88;;
12425;SDS011;6277;49.824;9.562;2022-12-11T07:01:35;12.60;;;8.63;;
12425;SDS011;6277;49.824;9.562;2022-12-11T07:04:01;15.02;;;8.88;;
12425;SDS011;6277;49.824;9.562;2022-12-11T07:06:26;17.73;;;9.07;;
12425;SDS011;6277;49.824;9.562;2022-12-11T07:08:52;12.93;;;8.65;;
12425;SDS011;6277;49.824;9.562;2022-12-11T07:11:19;13.85;;;9.73;;
12425;SDS011;6277;49.824;9.562;2022-12-11T07:13:45;14.55;;;9.30;;
12425;SDS011;6277;49.824;9.562;2022-12-11T07:16:12;13.38;;;9.85;;
12425;SDS011;6277;49.824;9.562;2022-12-11T07:18:40;14.95;;;10.48;;
12425;SDS011;6277;49.824;9.562;2022-12-11T07:21:07;17.70;;;12.32;;
12425;SDS011;6277;49.824;9.562;2022-12-11T07:23:35;15.68;;;11.30;;
12425;SDS011;6277;49.824;9.562;2022-12-11T08:43:06;5.13;;;3.55;;
12425;SDS011;6277;49.824;9.562;2022-12-11T08:45:32;5.90;;;3.92;;
12425;SDS011;6277;49.824;9.562;2022-12-11T08:47:58;6.18;;;4.03;;
12425;SDS011;6277;49.824;9.562;2022-12-11T08:50:24;5.82;;;3.92;;
12425;SDS011;6277;49.824;9.562;2022-12-11T08:52:49;8.05;;;4.82;;
12425;SDS011;6277;49.824;9.562;2022-12-11T08:55:15;6.55;;;4.20;;
12425;SDS011;6277;49.824;9.562;2022-12-11T08:57:40;8.27;;;5.35;;
12425;SDS011;6277;49.824;9.562;2022-12-11T09:00:06;8.95;;;5.32;;
12425;SDS011;6277;49.824;9.562;2022-12-11T09:02:34;7.75;;;5.25;;
12425;SDS011;6277;49.824;9.562;2022-12-11T09:04:59;8.73;;;5.38;;
12425;SDS011;6277;49.824;9.562;2022-12-11T09:07:25;8.43;;;5.00;;
12425;SDS011;6277;49.824;9.562;2022-12-11T09:09:53;8.07;;;5.65;;
12425;SDS011;6277;49.824;9.562;2022-12-11T09:12:19;8.15;;;5.22;;
12425;SDS011;6277;49.824;9.562;2022-12-11T09:14:44;9.75;;;6.18;;
12425;SDS011;6277;49.824;9.562;2022-12-11T09:40:28;8.98;;;5.90;;
12425;SDS011;6277;49.824;9.562;2022-12-11T09:42:59;10.98;;;6.78;;
12425;SDS011;6277;49.824;9.562;2022-12-11T09:45:31;9.55;;;6.18;;
12425;SDS011;6277;49.824;9.562;2022-12-11T09:47:57;9.85;;;6.10;;
12425;SDS011;6277;49.824;9.562;2022-12-11T09:50:26;10.40;;;6.07;;
12425;SDS011;6277;49.824;9.562;2022-12-11T09:53:17;10.32;;;6.95;;
12425;SDS011;6277;49.824;9.562;2022-12-11T09:55:48;9.40;;;6.25;;
12425;SDS011;6277;49.824;9.562;2022-12-11T09:58:46;10.40;;;6.38;;
12425;SDS011;6277;49.824;9.562;2022-12-11T10:01:36;10.57;;;7.30;;
12425;SDS011;6277;49.824;9.562;2022-12-11T10:07:05;9.95;;;6.53;;
12425;SDS011;6277;49.824;9.562;2022-12-11T10:09:55;10.23;;;6.75;;
12425;SDS011;6277;49.824;9.562;2022-12-11T10:17:59;10.07;;;7.18;;
12425;SDS011;6277;49.824;9.562;2022-12-11T10:20:27;12.07;;;7.65;;
12425;SDS011;6277;49.824;9.562;2022-12-11T10:22:57;11.70;;;7.68;;
12425;SDS011;6277;49.824;9.562;2022-12-11T10:25:28;11.60;;;7.70;;
12425;SDS011;6277;49.824;9.562;2022-12-11T10:27:56;10.40;;;6.95;;
12425;SDS011;6277;49.824;9.562;2022-12-11T10:30:23;11.38;;;7.65;;
12425;SDS011;6277;49.824;9.562;2022-12-11T10:35:20;10.55;;;7.25;;
12425;SDS011;6277;49.824;9.562;2022-12-11T10:38:01;12.90;;;7.57;;
12425;SDS011;6277;49.824;9.562;2022-12-11T10:40:37;10.80;;;7.28;;
12425;SDS011;6277;49.824;9.562;2022-12-11T10:43:07;11.95;;;6.93;;
12425;SDS011;6277;49.824;9.562;2022-12-11T10:45:32;11.35;;;7.40;;
12425;SDS011;6277;49.824;9.562;2022-12-11T10:48:02;11.05;;;7.22;;
12425;SDS011;6277;49.824;9.562;2022-12-11T10:50:33;9.07;;;6.40;;
12425;SDS011;6277;49.824;9.562;2022-12-11T10:53:00;9.88;;;7.07;;
12425;SDS011;6277;49.824;9.562;2022-12-11T10:55:43;11.18;;;7.32;;
12425;SDS011;6277;49.824;9.562;2022-12-11T10:58:14;10.65;;;6.70;;
12425;SDS011;6277;49.824;9.562;2022-12-11T11:00:42;10.10;;;6.78;;
12425;SDS011;6277;49.824;9.562;2022-12-11T11:03:22;9.15;;;6.50;;
12425;SDS011;6277;49.824;9.562;2022-12-11T11:05:49;10.00;;;6.45;;
12425;SDS011;6277;49.824;9.562;2022-12-11T11:08:27;10.43;;;6.55;;
12425;SDS011;6277;49.824;9.562;2022-12-11T11:11:01;11.43;;;6.93;;
12425;SDS011;6277;49.824;9.562;2022-12-11T11:13:31;10.07;;;6.65;;
12425;SDS011;6277;49.824;9.562;2022-12-11T11:16:00;10.27;;;7.13;;
12425;SDS011;6277;49.824;9.562;2022-12-11T11:18:30;10.27;;;6.55;;
12425;SDS011;6277;49.824;9.562;2022-12-11T11:20:57;9.40;;;6.35;;
12425;SDS011;6277;49.824;9.562;2022-12-11T11:23:24;11.40;;;6.88;;
12425;SDS011;6277;49.824;9.562;2022-12-11T11:25:54;10.32;;;6.97;;
12425;SDS011;6277;49.824;9.562;2022-12-11T11:28:28;9.95;;;6.45;;
12425;SDS011;6277;49.824;9.562;2022-12-11T11:31:03;12.05;;;7.32;;
12425;SDS011;6277;49.824;9.562;2022-12-11T11:33:32;10.23;;;6.80;;
12425;SDS011;6277;49.824;9.562;2022-12-11T11:36:22;11.85;;;7.18;;
12425;SDS011;6277;49.824;9.562;2022-12-11T11:41:36;11.85;;;7.40;;
12425;SDS011;6277;49.824;9.562;2022-12-11T11:44:10;11.38;;;7.28;;
12425;SDS011;6277;49.824;9.562;2022-12-11T11:54:57;11.88;;;7.60;;
12425;SDS011;6277;49.824;9.562;2022-12-11T11:57:47;10.50;;;7.40;;
12425;SDS011;6277;49.824;9.562;2022-12-11T12:00:25;13.40;;;8.40;;
12425;SDS011;6277;49.824;9.562;2022-12-11T12:02:56;11.65;;;7.78;;
12425;SDS011;6277;49.824;9.562;2022-12-11T12:05:27;15.38;;;9.48;;
12425;SDS011;6277;49.824;9.562;2022-12-11T12:22:50;13.48;;;8.38;;
12425;SDS011;6277;49.824;9.562;2022-12-11T12:25:01;12.57;;;7.93;;
12425;SDS011;6277;49.824;9.562;2022-12-11T12:27:41;12.23;;;8.32;;
12425;SDS011;6277;49.824;9.562;2022-12-11T12:30:22;13.60;;;9.13;;
12425;SDS011;6277;49.824;9.562;2022-12-11T12:35:39;13.93;;;8.88;;
12425;SDS011;6277;49.824;9.562;2022-12-11T12:38:18;14.35;;;9.57;;
12425;SDS011;6277;49.824;9.562;2022-12-11T12:48:15;12.75;;;8.82;;
12425;SDS011;6277;49.824;9.562;2022-12-11T12:50:42;13.50;;;8.52;;
12425;SDS011;6277;49.824;9.562;2022-12-11T12:53:17;13.80;;;8.60;;
12425;SDS011;6277;49.824;9.562;2022-12-11T12:55:45;12.20;;;8.27;;
12425;SDS011;6277;49.824;9.562;2022-12-11T12:58:25;13.02;;;8.27;;
12425;SDS011;6277;49.824;9.562;2022-12-11T13:00:53;14.13;;;8.43;;
12425;SDS011;6277;49.824;9.562;2022-12-11T13:03:31;12.38;;;7.90;;
12425;SDS011;6277;49.824;9.562;2022-12-11T13:08:46;12.50;;;8.25;;
12425;SDS011;6277;49.824;9.562;2022-12-11T13:11:15;12.57;;;7.72;;
12425;SDS011;6277;49.824;9.562;2022-12-11T13:13:46;12.27;;;7.72;;
12425;SDS011;6277;49.824;9.562;2022-12-11T13:16:25;11.98;;;7.75;;
12425;SDS011;6277;49.824;9.562;2022-12-11T13:18:58;11.50;;;7.63;;
12425;SDS011;6277;49.824;9.562;2022-12-11T13:21:29;11.80;;;7.82;;
12425;SDS011;6277;49.824;9.562;2022-12-11T13:24:23;11.80;;;8.18;;
12425;SDS011;6277;49.824;9.562;2022-12-11T13:26:50;13.60;;;8.35;;
12425;SDS011;6277;49.824;9.562;2022-12-11T13:31:58;12.02;;;8.00;;
12425;SDS011;6277;49.824;9.562;2022-12-11T13:34:51;12.55;;;7.40;;
12425;SDS011;6277;49.824;9.562;2022-12-11T13:37:26;11.68;;;7.43;;
12425;SDS011;6277;49.824;9.562;2022-12-11T13:40:00;11.75;;;6.45;;
12425;SDS011;6277;49.824;9.562;2022-12-11T13:42:33;11.05;;;7.10;;
12425;SDS011;6277;49.824;9.562;2022-12-11T13:45:18;10.15;;;6.47;;
12425;SDS011;6277;49.824;9.562;2022-12-11T13:47:48;8.77;;;6.25;;
12425;SDS011;6277;49.824;9.562;2022-12-11T13:50:16;9.63;;;5.97;;
12425;SDS011;6277;49.824;9.562;2022-12-11T13:52:53;10.95;;;6.65;;
12425;SDS011;6277;49.824;9.562;2022-12-11T13:55:24;10.25;;;6.68;;
12425;SDS011;6277;49.824;9.562;2022-12-11T13:57:50;8.98;;;6.22;;
12425;SDS011;6277;49.824;9.562;2022-12-11T14:00:20;9.95;;;6.25;;
12425;SDS011;6277;49.824;9.562;2022-12-11T14:02:51;9.15;;;6.25;;
12425;SDS011;6277;49.824;9.562;2022-12-11T14:05:18;10.52;;;6.65;;
12425;SDS011;6277;49.824;9.562;2022-12-11T14:07:48;11.90;;;7.20;;
12425;SDS011;6277;49.824;9.562;2022-12-11T14:10:17;11.30;;;7.20;;
12425;SDS011;6277;49.824;9.562;2022-12-11T14:15:23;9.68;;;6.63;;
12425;SDS011;6277;49.824;9.562;2022-12-11T14:17:50;11.02;;;6.95;;
12425;SDS011;6277;49.824;9.562;2022-12-11T14:20:20;11.63;;;7.18;;
12425;SDS011;6277;49.824;9.562;2022-12-11T14:22:48;11.23;;;6.97;;
12425;SDS011;6277;49.824;9.562;2022-12-11T14:27:47;11.73;;;7.15;;
12425;SDS011;6277;49.824;9.562;2022-12-11T14:30:19;12.23;;;7.88;;
12425;SDS011;6277;49.824;9.562;2022-12-11T14:32:49;11.73;;;6.72;;
12425;SDS011;6277;49.824;9.562;2022-12-11T14:37:50;10.63;;;6.75;;
12425;SDS011;6277;49.824;9.562;2022-12-11T14:40:17;11.73;;;6.95;;
12425;SDS011;6277;49.824;9.562;2022-12-11T14:42:47;10.25;;;6.63;;
12425;SDS011;6277;49.824;9.562;2022-12-11T14:45:23;10.85;;;6.90;;
12425;SDS011;6277;49.824;9.562;2022-12-11T14:47:55;10.20;;;6.25;;
12425;SDS011;6277;49.824;9.562;2022-12-11T14:50:26;10.65;;;6.30;;
12425;SDS011;6277;49.824;9.562;2022-12-11T14:53:03;9.60;;;6.20;;
12425;SDS011;6277;49.824;9.562;2022-12-11T14:55:37;12.15;;;6.65;;
12425;SDS011;6277;49.824;9.562;2022-12-11T14:58:05;11.07;;;6.78;;
12425;SDS011;6277;49.824;9.562;2022-12-11T15:00:54;8.80;;;5.97;;
12425;SDS011;6277;49.824;9.562;2022-12-11T15:05:59;9.52;;;6.45;;
12425;SDS011;6277;49.824;9.562;2022-12-11T15:08:27;10.25;;;6.40;;
12425;SDS011;6277;49.824;9.562;2022-12-11T15:11:13;8.88;;;5.80;;
12425;SDS011;6277;49.824;9.562;2022-12-11T15:13:48;11.38;;;6.63;;
12425;SDS011;6277;49.824;9.562;2022-12-11T15:16:18;11.23;;;6.38;;
12425;SDS011;6277;49.824;9.562;2022-12-11T15:18:49;10.32;;;6.70;;
12425;SDS011;6277;49.824;9.562;2022-12-11T15:21:16;9.25;;;5.68;;
12425;SDS011;6277;49.824;9.562;2022-12-11T15:23:48;9.07;;;5.82;;
12425;SDS011;6277;49.824;9.562;2022-12-11T15:26:16;8.98;;;5.75;;
12425;SDS011;6277;49.824;9.562;2022-12-11T15:28:43;10.15;;;6.25;;
12425;SDS011;6277;49.824;9.562;2022-12-11T15:31:30;8.77;;;5.82;;
12425;SDS011;6277;49.824;9.562;2022-12-11T15:33:56;9.57;;;5.88;;
12425;SDS011;6277;49.824;9.562;2022-12-11T15:36:24;10.13;;;6.70;;
12425;SDS011;6277;49.824;9.562;2022-12-11T15:38:55;9.38;;;5.95;;
12425;SDS011;6277;49.824;9.562;2022-12-11T15:41:21;11.20;;;6.95;;
12425;SDS011;6277;49.824;9.562;2022-12-11T15:43:54;11.65;;;7.00;;
12425;SDS011;6277;49.824;9.562;2022-12-11T15:46:21;12.02;;;7.10;;
12425;SDS011;6277;49.824;9.562;2022-12-11T15:48:47;10.18;;;6.60;;
12425;SDS011;6277;49.824;9.562;2022-12-11T15:51:13;11.15;;;7.32;;
12425;SDS011;6277;49.824;9.562;2022-12-11T15:53:39;9.52;;;6.15;;
12425;SDS011;6277;49.824;9.562;2022-12-11T15:56:05;11.02;;;6.80;;
12425;SDS011;6277;49.824;9.562;2022-12-11T15:58:31;13.60;;;7.10;;
12425;SDS011;6277;49.824;9.562;2022-12-11T16:00:57;12.63;;;7.50;;
12425;SDS011;6277;49.824;9.562;2022-12-11T16:03:23;12.23;;;7.32;;
12425;SDS011;6277;49.824;9.562;2022-12-11T16:05:49;12.15;;;7.45;;
12425;SDS011;6277;49.824;9.562;2022-12-11T16:08:17;13.85;;;7.72;;
12425;SDS011;6277;49.824;9.562;2022-12-11T16:10:45;12.30;;;8.18;;
12425;SDS011;6277;49.824;9.562;2022-12-11T16:13:12;14.35;;;8.40;;
12425;SDS011;6277;49.824;9.562;2022-12-11T16:15:38;13.73;;;8.82;;
12425;SDS011;6277;49.824;9.562;2022-12-11T16:18:07;13.35;;;8.43;;
12425;SDS011;6277;49.824;9.562;2022-12-11T16:20:38;11.40;;;7.28;;
12425;SDS011;6277;49.824;9.562;2022-12-11T16:23:05;13.13;;;7.82;;
12425;SDS011;6277;49.824;9.562;2022-12-11T16:25:31;10.75;;;7.05;;
12425;SDS011;6277;49.824;9.562;2022-12-11T16:27:58;11.70;;;7.45;;
12425;SDS011;6277;49.824;9.562;2022-12-11T16:30:25;12.63;;;7.32;;
12425;SDS011;6277;49.824;9.562;2022-12-11T16:32:52;11.57;;;7.55;;
12425;SDS011;6277;49.824;9.562;2022-12-11T16:35:18;11.30;;;7.20;;
12425;SDS011;6277;49.824;9.562;2022-12-11T16:37:46;13.30;;;7.32;;
12425;SDS011;6277;49.824;9.562;2022-12-11T16:40:16;10.60;;;6.57;;
12425;SDS011;6277;49.824;9.562;2022-12-11T16:42:42;10.93;;;6.45;;
12425;SDS011;6277;49.824;9.562;2022-12-11T16:45:12;10.25;;;6.28;;
12425;SDS011;6277;49.824;9.562;2022-12-11T16:47:39;9.05;;;5.78;;
12425;SDS011;6277;49.824;9.562;2022-12-11T16:50:05;10.18;;;6.18;;
12425;SDS011;6277;49.824;9.562;2022-12-11T16:52:31;11.27;;;6.95;;
12425;SDS011;6277;49.824;9.562;2022-12-11T16:54:57;10.85;;;7.05;;
12425;SDS011;6277;49.824;9.562;2022-12-11T16:57:23;11.55;;;7.38;;
12425;SDS011;6277;49.824;9.562;2022-12-11T16:59:49;11.55;;;6.68;;
12425;SDS011;6277;49.824;9.562;2022-12-11T17:02:14;12.73;;;7.20;;
12425;SDS011;6277;49.824;9.562;2022-12-11T17:04:40;11.75;;;7.05;;
12425;SDS011;6277;49.824;9.562;2022-12-11T17:07:06;11.70;;;6.78;;
12425;SDS011;6277;49.824;9.562;2022-12-11T17:09:31;12.88;;;7.18;;
12425;SDS011;6277;49.824;9.562;2022-12-11T17:11:58;12.77;;;7.53;;
12425;SDS011;6277;49.824;9.562;2022-12-11T17:14:24;10.40;;;6.88;;
12425;SDS011;6277;49.824;9.562;2022-12-11T17:16:49;11.00;;;6.80;;
12425;SDS011;6277;49.824;9.562;2022-12-11T17:19:15;13.27;;;7.80;;
12425;SDS011;6277;49.824;9.562;2022-12-11T17:21:40;14.55;;;8.13;;
12425;SDS011;6277;49.824;9.562;2022-12-11T17:24:06;13.35;;;8.85;;
12425;SDS011;6277;49.824;9.562;2022-12-11T17:26:33;15.63;;;8.73;;
12425;SDS011;6277;49.824;9.562;2022-12-11T17:28:59;14.57;;;8.73;;
12425;SDS011;6277;49.824;9.562;2022-12-11T17:31:24;13.07;;;8.35;;
12425;SDS011;6277;49.824;9.562;2022-12-11T17:33:51;12.68;;;7.75;;
12425;SDS011;6277;49.824;9.562;2022-12-11T17:36:19;13.55;;;8.18;;
12425;SDS011;6277;49.824;9.562;2022-12-11T17:38:46;13.25;;;7.70;;
12425;SDS011;6277;49.824;9.562;2022-12-11T17:41:12;12.77;;;7.78;;
12425;SDS011;6277;49.824;9.562;2022-12-11T17:43:38;12.82;;;8.20;;
12425;SDS011;6277;49.824;9.562;2022-12-11T17:46:04;15.25;;;8.52;;
12425;SDS011;6277;49.824;9.562;2022-12-11T17:48:31;12.77;;;7.78;;
12425;SDS011;6277;49.824;9.562;2022-12-11T17:50:56;12.02;;;6.90;;
12425;SDS011;6277;49.824;9.562;2022-12-11T17:53:25;9.95;;;6.13;;
12425;SDS011;6277;49.824;9.562;2022-12-11T17:55:51;11.63;;;6.20;;
12425;SDS011;6277;49.824;9.562;2022-12-11T17:58:18;9.52;;;5.95;;
12425;SDS011;6277;49.824;9.562;2022-12-11T18:00:46;9.88;;;6.20;;
12425;SDS011;6277;49.824;9.562;2022-12-11T18:03:14;10.35;;;6.18;;